Latest Weather Observations for Lord Howe Island

IDN60801

Issued at 2:35 pm EST Tuesday 29 July 2014 (issued every 30 minutes, with the page automatically refreshed every 10 minutes)

About weather observations | Map of weather stations | Latest weather observations for NSW | Other Formats
Station Details ID: 200839 Name: LORD HOWE ISLAND AERO Lat: -31.54 Lon: 159.08 Height: 5.0 m
Data from the previous 72 hours. | See also: Recent months at Lord Howe Island
Date/Time
EST
Temp
°C
App
Temp
°C
Dew
Point
Rel
Hum
%
Delta-T
°C
Wind Press
QNH
hPa
Press
MSL
hPa
Rain
since 9 am
mm
Dir
 
Spd
km/h
Gust
km/h
Spd
kts
Gust
kts
29/02:30pm 19.9 16.3 10.4 54 5.1 W 20 28 11 15 1019.4 1019.4 0.0
29/02:00pm 19.7 16.5 11.3 58 4.6 W 19 24 10 13 1019.3 - 0.0
29/01:30pm 19.6 16.2 10.7 56 4.8 W 19 22 10 12 1019.5 - 0.0
29/01:00pm 20.1 16.7 12.6 62 4.2 W 22 26 12 14 1019.6 - 0.0
29/12:30pm 20.0 17.2 11.2 57 4.8 W 17 28 9 15 1019.8 - 0.0
29/12:00pm 20.3 17.3 10.7 54 5.2 WNW 17 28 9 15 1020.2 - 0.0
29/11:30am 20.2 17.1 10.4 53 5.3 WNW 17 24 9 13 1020.7 1020.7 0.0
29/11:00am 19.3 16.7 9.2 52 5.3 WNW 13 22 7 12 1021.2 - 0.0
29/10:30am 19.3 16.6 10.3 56 4.8 W 15 20 8 11 1021.6 - 0.0
29/10:00am 19.5 15.8 9.5 52 5.3 W 19 24 10 13 1021.7 - 0.0
29/09:30am 19.7 15.9 9.7 52 5.3 W 20 28 11 15 1021.8 - 0.0
29/09:00am 19.3 15.9 9.2 52 5.3 W 17 24 9 13 1021.7 - 0.0
29/08:30am 19.3 16.6 7.5 46 6.0 WNW 11 17 6 9 1021.5 1021.5 0.0
29/08:00am 18.8 16.3 8.0 49 5.5 WNW 11 15 6 8 1021.5 - 0.0
29/07:30am 17.6 16.7 11.3 66 3.4 WNW 7 11 4 6 1021.5 - 0.0
29/07:00am 15.7 15.3 12.4 81 1.8 SW 6 9 3 5 1021.4 - 0.0
29/06:30am 14.8 13.7 11.8 82 1.6 SSW 9 11 5 6 1021.2 - 0.0
29/06:00am 13.5 12.2 11.4 87 1.1 SSW 9 11 5 6 1020.9 - 0.0
29/05:30am 14.3 14.4 11.5 83 1.5 SW 2 7 1 4 1020.7 1020.7 0.0
29/05:00am 15.3 13.5 11.0 75 2.3 SSW 11 15 6 8 1020.5 - 0.0
29/04:30am 15.5 12.6 12.2 81 1.8 SW 19 30 10 16 1020.3 - 0.0
29/04:00am 15.8 10.0 12.7 82 1.7 W 35 44 19 24 1020.1 - 0.0
29/03:46am 15.8 11.5 13.3 85 1.4 W 28 37 15 20 1020.1 - 0.0
29/03:30am 13.7 13.5 11.8 88 1.0 SW 4 7 2 4 1020.1 - 0.0
29/03:00am 11.7 11.9 10.5 92 0.6 SW 0 7 0 4 1020.2 - 0.0
29/02:49am 11.2 11.3 10.2 94 0.5 CALM 0 0 0 0 1020.2 - 0.0
29/02:31am 10.7 10.7 9.9 95 0.4 CALM 0 0 0 0 1020.3 - 0.0
29/02:30am 10.6 10.6 9.8 95 0.4 CALM 0 0 0 0 1020.3 1020.3 0.0
29/02:16am 10.8 10.8 9.8 93 0.5 CALM 0 0 0 0 1020.4 - 0.0
29/02:00am 10.6 10.7 10.0 96 0.3 CALM 0 0 0 0 1020.4 - 0.0
29/01:50am 10.7 10.7 9.9 95 0.4 CALM 0 0 0 0 1020.5 - 0.0
29/01:30am 11.3 11.4 10.1 92 0.6 CALM 0 0 0 0 1020.6 - 0.0
29/01:11am 11.3 11.4 10.3 94 0.5 CALM 0 0 0 0 1020.8 - 0.0
29/01:00am 11.7 11.9 10.7 94 0.5 CALM 0 0 0 0 1020.8 - 0.0
29/12:30am 12.5 13.0 11.6 94 0.5 CALM 0 0 0 0 1020.8 - 0.0
29/12:00am 13.2 13.7 11.5 89 0.9 CALM 0 0 0 0 1021.0 - 0.0
 
Date/Time
EST
Temp
°C
App
Temp
°C
Dew
Point
Rel
Hum
%
Delta-T
°C
Wind Press
QNH
hPa
Press
MSL
hPa
Rain
since 9 am
mm
Dir
 
Spd
km/h
Gust
km/h
Spd
kts
Gust
kts
28/11:30pm 13.4 14.0 11.9 91 0.8 SW 0 0 0 0 1021.2 1021.2 0.0
28/11:00pm 14.1 14.9 12.4 89 0.9 CALM 0 0 0 0 1021.5 - 0.0
28/10:30pm 13.4 13.9 11.7 89 0.9 CALM 0 0 0 0 1021.6 - 0.0
28/10:00pm 15.4 15.9 12.7 84 1.5 SSW 2 6 1 3 1021.7 - 0.0
28/09:30pm 15.3 16.1 12.6 84 1.5 CALM 0 0 0 0 1021.9 - 0.0
28/09:00pm 15.6 15.9 12.3 81 1.8 WNW 2 7 1 4 1022.0 - 0.0
28/08:30pm 15.4 16.1 12.1 81 1.8 CALM 0 0 0 0 1021.9 1021.9 0.0
28/08:00pm 16.7 15.5 11.7 72 2.7 WSW 9 13 5 7 1021.7 - 0.0
28/07:30pm 16.5 15.7 11.7 73 2.6 W 7 13 4 7 1021.7 - 0.0
28/07:00pm 17.0 15.7 11.2 68 3.1 WSW 9 13 5 7 1021.7 - 0.0
28/06:30pm 15.9 14.5 11.0 72 2.6 SW 9 11 5 6 1021.4 - 0.0
28/06:00pm 16.8 15.0 10.8 67 3.2 WSW 11 13 6 7 1021.1 - 0.0
28/05:30pm 17.0 14.9 11.2 68 3.1 WSW 13 17 7 9 1021.0 1021.0 0.0
28/05:00pm 17.1 14.2 10.9 67 3.3 W 17 19 9 10 1020.7 - 0.0
28/04:30pm 17.1 14.3 11.4 69 3.1 W 17 19 9 10 1020.5 - 0.0
28/04:00pm 17.7 15.3 11.4 66 3.4 W 15 19 8 10 1020.1 - 0.0
28/03:30pm 18.2 16.1 11.0 63 3.9 W 13 19 7 10 1020.1 - 0.0
28/03:00pm 18.9 18.0 11.2 61 4.2 W 7 9 4 5 1019.7 - 0.0
28/02:30pm 19.0 17.5 10.4 57 4.6 W 9 13 5 7 1019.8 1019.8 0.0
28/02:00pm 18.7 16.7 11.4 62 4.0 W 13 17 7 9 1020.0 - 0.0
28/01:30pm 18.6 17.0 11.7 64 3.8 W 11 15 6 8 1019.9 - 0.0
28/01:00pm 18.4 16.7 11.2 63 3.9 WSW 11 15 6 8 1020.1 - 0.0
28/12:30pm 18.4 16.3 11.2 63 3.9 WSW 13 17 7 9 1020.4 - 0.0
28/12:00pm 18.7 16.7 11.4 62 4.0 WSW 13 17 7 9 1020.9 - 0.0
28/11:30am 18.3 16.0 11.7 65 3.6 WSW 15 17 8 9 1021.0 1021.0 0.0
28/11:00am 18.0 15.7 11.8 67 3.4 WSW 15 19 8 10 1021.4 - 0.0
28/10:30am 18.2 16.2 11.4 64 3.7 WSW 13 17 7 9 1021.6 - 0.0
28/10:00am 18.3 16.6 11.3 63 3.8 SW 11 13 6 7 1021.5 - 0.0
28/09:30am 18.1 17.0 11.9 67 3.4 WSW 9 13 5 7 1021.8 - 0.0
28/09:00am 17.7 16.4 11.4 66 3.4 SW 9 13 5 7 1021.7 - 0.0
28/08:30am 17.2 16.3 11.5 69 3.1 SW 7 11 4 6 1021.6 1021.6 0.2
28/08:00am 15.6 15.8 11.9 78 2.0 SW 2 6 1 3 1021.6 - 0.2
28/07:30am 14.1 14.8 12.2 88 1.0 CALM 0 2 0 1 1021.5 - 0.2
28/07:00am 12.1 12.3 10.5 90 0.8 CALM 0 0 0 0 1021.0 - 0.2
28/06:30am 10.9 10.9 9.7 92 0.6 CALM 0 0 0 0 1020.7 - 0.2
28/06:00am 10.0 9.8 9.2 95 0.4 CALM 0 0 0 0 1020.6 - 0.2
28/05:30am 10.5 10.4 9.5 93 0.5 CALM 0 0 0 0 1020.4 1020.4 0.2
28/05:00am 10.3 10.2 9.3 93 0.5 CALM 0 4 0 2 1020.2 - 0.2
28/04:30am 10.8 10.7 9.4 91 0.7 CALM 0 0 0 0 1019.9 - 0.2
28/04:00am 11.2 11.2 9.8 91 0.7 CALM 0 2 0 1 1019.8 - 0.2
28/03:30am 11.3 11.3 9.9 91 0.7 CALM 0 0 0 0 1019.8 - 0.2
28/03:00am 11.5 11.5 9.7 89 0.9 CALM 0 0 0 0 1019.9 - 0.2
28/02:30am 11.9 11.5 9.7 86 1.1 ESE 2 7 1 4 1019.6 1019.6 0.2
28/02:00am 14.0 13.8 10.3 78 1.9 SSW 2 9 1 5 1019.7 - 0.2
28/01:30am 14.4 14.4 11.0 80 1.8 S 2 7 1 4 1019.8 - 0.2
28/01:00am 15.6 14.6 10.9 73 2.5 S 7 13 4 7 1020.1 - 0.2
28/12:30am 16.2 14.4 10.7 70 2.9 SSW 11 15 6 8 1020.1 - 0.2
28/12:00am 16.6 14.8 12.0 74 2.5 SW 13 22 7 12 1020.2 - 0.2
 
Date/Time
EST
Temp
°C
App
Temp
°C
Dew
Point
Rel
Hum
%
Delta-T
°C
Wind Press
QNH
hPa
Press
MSL
hPa
Rain
since 9 am
mm
Dir
 
Spd
km/h
Gust
km/h
Spd
kts
Gust
kts
27/11:30pm 16.7 13.6 11.7 72 2.7 SW 19 26 10 14 1020.3 1020.3 0.2
27/11:00pm 16.8 13.7 12.2 74 2.5 SW 20 30 11 16 1020.4 - 0.2
27/10:30pm 17.0 14.0 11.9 72 2.8 SW 19 26 10 14 1020.5 - 0.2
27/10:00pm 16.9 14.8 11.1 68 3.1 SSW 13 20 7 11 1020.4 - 0.2
27/09:30pm 16.9 14.3 10.7 67 3.3 SSW 15 22 8 12 1020.2 - 0.2
27/09:00pm 16.9 13.9 10.7 67 3.3 SSW 17 28 9 15 1020.0 - 0.2
27/08:30pm 16.8 12.9 9.3 61 3.9 SSW 20 30 11 16 1020.1 1020.1 0.2
27/08:00pm 17.1 13.7 11.4 69 3.1 SW 20 32 11 17 1020.0 - 0.2
27/07:30pm 17.1 13.9 11.8 71 2.9 SW 20 30 11 16 1019.9 - 0.2
27/07:00pm 17.0 13.6 11.2 68 3.1 SW 20 30 11 16 1019.7 - 0.2
27/06:30pm 17.2 13.1 11.5 69 3.1 SW 24 33 13 18 1019.4 - 0.2
27/06:00pm 17.2 13.0 11.1 67 3.3 SW 24 35 13 19 1019.1 - 0.2
27/05:30pm 17.3 13.3 11.8 70 3.0 SW 24 35 13 19 1018.6 1018.6 0.2
27/05:00pm 17.4 13.5 10.7 65 3.6 SW 22 35 12 19 1018.2 - 0.2
27/04:30pm 17.4 13.0 11.7 69 3.1 SW 26 35 14 19 1017.9 - 0.2
27/04:00pm 17.7 12.8 11.2 65 3.5 SW 28 39 15 21 1017.6 - 0.2
27/03:30pm 17.9 12.8 10.6 62 3.9 SW 28 41 15 22 1017.4 - 0.2
27/03:00pm 18.1 13.1 10.9 63 3.9 SW 28 41 15 22 1017.3 - 0.2
27/02:30pm 18.0 12.9 11.8 67 3.4 SW 30 43 16 23 1017.2 1017.2 0.2
27/02:00pm 18.1 12.0 11.9 67 3.4 WSW 35 44 19 24 1017.0 - 0.2
27/01:30pm 18.3 12.9 12.1 67 3.4 WSW 32 39 17 21 1017.0 - 0.2
27/01:00pm 18.6 13.5 11.9 65 3.7 WSW 30 37 16 20 1017.1 - 0.2
27/12:30pm 18.4 14.2 12.3 67 3.4 WSW 26 33 14 18 1017.4 - 0.2
27/12:00pm 18.2 14.6 13.0 71 2.9 WSW 24 28 13 15 1017.9 - 0.2
27/11:30am 18.0 14.8 13.0 72 2.8 WSW 22 28 12 15 1018.5 1018.5 0.2
27/11:00am 18.2 16.5 14.6 79 2.1 W 17 20 9 11 1019.1 - 0.0
27/10:30am 17.7 15.2 14.2 80 2.0 W 20 24 11 13 1019.5 - 0.0
27/10:06am 16.4 14.4 13.9 85 1.4 W 17 20 9 11 1019.7 - 0.0
27/10:00am 16.2 13.8 13.9 86 1.3 W 19 22 10 12 1019.8 - 0.0
27/09:32am 16.3 15.2 14.2 87 1.2 W 13 17 7 9 1020.0 - 0.0
27/09:30am 16.2 15.0 14.1 87 1.2 WNW 13 17 7 9 1020.0 - 0.0
27/09:00am 16.2 14.0 14.3 88 1.1 W 19 22 10 12 1019.9 - 0.0
27/08:30am 15.2 14.7 12.8 85 1.3 WNW 7 13 4 7 1019.8 1019.8 28.0
27/08:00am 15.6 15.7 14.4 93 0.7 N 7 13 4 7 1019.8 - 28.0
27/07:30am 15.5 14.8 14.3 92 0.7 N 11 20 6 11 1019.7 - 27.8
27/07:18am 15.3 16.3 14.4 94 0.5 E 2 7 1 4 1019.7 - 27.8
27/07:00am 15.1 15.2 14.4 96 0.4 NNE 7 11 4 6 1020.0 - 27.2
27/06:49am 15.2 14.9 14.3 94 0.5 S 9 11 5 6 1020.1 - 24.6
27/06:32am 15.4 15.6 14.2 92 0.7 SW 6 11 3 6 1020.1 - 23.6
27/06:30am 15.3 15.9 14.2 93 0.6 WSW 4 9 2 5 1020.1 - 23.6
27/06:21am 15.3 15.9 14.2 93 0.6 NW 4 9 2 5 1019.9 - 23.4
27/06:00am 15.4 15.5 13.8 90 0.9 NNW 6 13 3 7 1020.0 - 23.2
27/05:30am 15.1 14.9 13.7 91 0.8 NNW 7 13 4 7 1019.9 1019.9 23.2
27/05:23am 15.1 14.3 13.9 92 0.7 N 11 17 6 9 1019.9 - 23.2
27/05:00am 14.9 14.0 13.6 92 0.7 N 11 19 6 10 1020.0 - 23.2
27/04:30am 14.2 14.9 13.3 94 0.5 NW 2 13 1 7 1019.9 - 22.6
27/04:00am 14.2 15.0 13.7 97 0.3 WNW 2 6 1 3 1020.2 - 22.4
27/03:49am 14.3 13.7 13.6 96 0.4 WSW 9 15 5 8 1020.4 - 22.4
27/03:30am 14.4 15.1 13.5 94 0.5 NNW 2 7 1 4 1019.9 - 21.6
27/03:28am 14.5 14.9 13.6 94 0.5 NW 4 9 2 5 1019.9 - 21.4
27/03:00am 14.5 12.4 12.5 88 1.1 WSW 15 24 8 13 1020.0 - 20.4
27/02:30am 14.5 12.0 13.6 94 0.5 SW 19 28 10 15 1020.4 1020.4 20.2
27/02:17am 14.4 11.9 13.5 94 0.5 SW 19 30 10 16 1020.7 - 20.0
27/02:09am 14.2 11.7 13.5 96 0.4 SW 19 24 10 13 1020.9 - 19.6
27/02:00am 14.3 11.8 13.6 96 0.4 SW 19 30 10 16 1021.0 - 19.2
27/01:30am 14.7 9.9 14.0 96 0.4 WSW 32 41 17 22 1022.1 - 8.8
27/01:13am 14.8 10.6 13.5 92 0.7 WSW 28 43 15 23 1021.3 - 2.0
27/01:10am 14.9 9.8 13.1 89 1.0 WSW 32 44 17 24 1021.5 - 1.4
27/01:00am 18.1 16.2 14.1 77 2.3 NW 17 37 9 20 1021.7 - 0.8
27/12:30am 19.1 17.3 13.3 69 3.3 N 15 30 8 16 1021.1 - 0.0
27/12:00am 18.9 17.5 13.4 70 3.1 N 13 30 7 16 1021.8 - 0.0
 
Date/Time
EST
Temp
°C
App
Temp
°C
Dew
Point
Rel
Hum
%
Delta-T
°C
Wind Press
QNH
hPa
Press
MSL
hPa
Rain
since 9 am
mm
Dir
 
Spd
km/h
Gust
km/h
Spd
kts
Gust
kts
26/11:30pm 18.9 17.4 13.2 69 3.2 N 13 26 7 14 1022.2 1022.2 0.0
26/11:00pm 18.9 16.9 12.6 67 3.5 N 15 30 8 16 1022.7 - 0.0
26/10:30pm 18.8 17.0 12.1 65 3.7 N 13 24 7 13 1023.2 - 0.0
26/10:00pm 18.7 16.9 12.0 65 3.7 N 13 28 7 15 1023.5 - 0.0
26/09:30pm 18.8 16.5 11.9 64 3.8 N 15 24 8 13 1023.6 - 0.0
26/09:00pm 18.6 16.6 12.7 68 3.3 NNE 15 30 8 16 1023.9 - 0.0
26/08:30pm 18.5 16.1 12.8 69 3.2 NNE 17 33 9 18 1024.1 1024.1 0.0
26/08:00pm 18.7 17.1 12.8 68 3.3 N 13 22 7 12 1024.5 - 0.0
26/07:30pm 18.7 17.9 13.0 69 3.2 N 9 19 5 10 1024.6 - 0.0
26/07:00pm 18.5 16.5 12.6 68 3.3 NNE 15 24 8 13 1024.7 - 0.0
26/06:30pm 18.6 16.9 12.3 67 3.5 N 13 20 7 11 1024.6 - 0.0
26/06:00pm 18.6 17.3 12.5 67 3.4 NNE 11 19 6 10 1024.7 - 0.0
26/05:30pm 18.4 17.5 12.6 69 3.2 N 9 17 5 9 1024.7 1024.7 0.0
26/05:00pm 18.3 17.4 12.7 70 3.1 N 9 19 5 10 1024.6 - 0.0
26/04:30pm 18.4 17.9 12.8 70 3.1 N 7 15 4 8 1024.8 - 0.0
26/04:00pm 18.8 18.2 12.3 66 3.6 NNW 7 15 4 8 1024.8 - 0.0
26/03:30pm 19.1 17.3 12.0 63 3.9 NNW 13 22 7 12 1025.1 - 0.0
26/03:00pm 19.5 17.7 12.1 62 4.1 NNW 13 22 7 12 1025.3 - 0.0
26/02:30pm 19.5 18.6 12.7 65 3.8 NW 9 19 5 10 1025.2 1025.2 0.0

Other Formats:

Comma delimited format used in spreadsheet applications
http://www.bom.gov.au/fwo/IDN60801/IDN60801.94995.axf

JavaScript Object Notation format (JSON) in row-major order
http://www.bom.gov.au/fwo/IDN60801/IDN60801.94995.json